Time;durP1;ratioP1;P1;durP2;ratioP2;P2;SDS_P1;SDS_P2;PMS_P1;PMS_P2;Temp;Humidity;BMP_temperature;BMP_pressure;BME280_temperature;BME280_humidity;BME280_pressure;Samples;Min_cycle;Max_cycle;Signal;HPM_P1;HPM_P2
2023/09/19 06:50:23;;;;;;;13.85;2.75;;;14.80;99.90;;;;;;6280104;22;20101;-92
2023/09/19 06:52:54;;;;;;;12.43;2.72;;;14.70;99.90;;;;;;6252678;22;20098;-94
2023/09/19 06:55:24;;;;;;;8.88;2.40;;;14.60;99.90;;;;;;6232313;22;20019;-96
2023/09/19 06:57:50;;;;;;;8.57;2.60;;;14.70;99.90;;;;;;6224586;22;20011;-92
2023/09/19 07:00:21;;;;;;;10.57;2.13;;;14.70;99.90;;;;;;6221499;22;20011;-95
2023/09/19 07:03:07;;;;;;;7.13;2.20;;;14.80;99.90;;;;;;6224986;22;20015;-96
2023/09/19 07:05:37;;;;;;;9.25;2.83;;;14.90;99.90;;;;;;6250794;22;20008;-95
2023/09/19 07:08:03;;;;;;;9.07;2.28;;;15.10;99.90;;;;;;6248274;22;20010;-95
2023/09/19 07:10:30;;;;;;;6.20;2.63;;;15.20;99.90;;;;;;6262293;22;20011;-96
2023/09/19 07:13:03;;;;;;;9.15;2.63;;;15.50;99.90;;;;;;6240196;22;20019;-96
2023/09/19 07:15:35;;;;;;;7.55;2.15;;;15.70;99.90;;;;;;6273006;22;20006;-94
2023/09/19 07:18:01;;;;;;;9.13;2.63;;;15.90;99.90;;;;;;6239691;22;20011;-95
2023/09/19 07:20:29;;;;;;;15.10;2.72;;;;;;;;;;6226551;22;20281;-95
2023/09/19 07:22:55;;;;;;;9.18;2.58;;;16.30;99.90;;;;;;6225918;22;20015;-96
2023/09/19 07:25:21;;;;;;;13.38;2.33;;;16.30;99.90;;;;;;6224868;22;20063;-95
2023/09/19 07:27:47;;;;;;;10.68;2.42;;;16.50;99.90;;;;;;6223571;22;20015;-96
2023/09/19 07:30:13;;;;;;;10.25;2.42;;;16.70;99.90;;;;;;6223817;22;20341;-95
2023/09/19 07:32:40;;;;;;;11.02;2.53;;;17.00;99.90;;;;;;6249840;22;20019;-94
2023/09/19 07:35:06;;;;;;;12.93;2.70;;;17.10;99.90;;;;;;6224247;22;20011;-94
2023/09/19 07:37:36;;;;;;;7.05;2.38;;;17.20;99.90;;;;;;6256998;22;20038;-95
2023/09/19 07:40:09;;;;;;;11.15;2.60;;;17.20;99.90;;;;;;6241870;22;20016;-94
2023/09/19 07:42:40;;;;;;;9.27;2.10;;;17.30;99.90;;;;;;6259992;22;20051;-95
2023/09/19 07:45:07;;;;;;;8.43;2.35;;;17.40;99.90;;;;;;6226372;22;20078;-94
2023/09/19 07:47:36;;;;;;;7.97;2.00;;;17.40;99.90;;;;;;6227885;22;20337;-93
2023/09/19 07:50:02;;;;;;;12.93;2.70;;;17.60;99.90;;;;;;6224388;22;20020;-94
2023/09/19 07:52:29;;;;;;;7.05;2.40;;;17.70;99.90;;;;;;6223957;22;20456;-94
2023/09/19 07:54:57;;;;;;;10.55;2.40;;;17.70;99.90;;;;;;6223756;22;20016;-94
2023/09/19 07:57:22;;;;;;;11.95;2.90;;;17.60;99.90;;;;;;6228500;22;20012;-94
2023/09/19 07:59:48;;;;;;;15.02;3.30;;;17.40;99.90;;;;;;6263598;22;20007;-94
2023/09/19 08:02:16;;;;;;;8.10;2.13;;;17.40;99.90;;;;;;6230158;22;20011;-94
2023/09/19 08:04:48;;;;;;;8.25;2.30;;;17.40;99.90;;;;;;6257507;22;20094;-93
2023/09/19 08:07:14;;;;;;;8.98;2.17;;;17.40;99.90;;;;;;6276151;22;20007;-94
2023/09/19 08:09:41;;;;;;;11.88;2.55;;;17.40;99.90;;;;;;6250741;22;20018;-93
2023/09/19 08:12:10;;;;;;;12.05;3.28;;;17.40;99.90;;;;;;6275330;22;20085;-93
2023/09/19 08:14:37;;;;;;;9.02;2.50;;;17.30;99.90;;;;;;6250828;22;20022;-93
2023/09/19 08:17:05;;;;;;;8.75;2.90;;;17.40;99.90;;;;;;6250842;22;20015;-94
2023/09/19 08:19:31;;;;;;;9.93;2.78;;;17.40;99.90;;;;;;6250477;22;20047;-94
2023/09/19 08:22:01;;;;;;;7.72;2.42;;;17.50;99.90;;;;;;6275455;22;20091;-94
2023/09/19 08:24:30;;;;;;;12.63;2.50;;;17.50;99.90;;;;;;6250237;22;20026;-94
2023/09/19 08:26:57;;;;;;;11.02;3.08;;;17.50;99.90;;;;;;6275113;22;20008;-95
2023/09/19 08:29:27;;;;;;;13.48;2.97;;;17.50;99.90;;;;;;6249875;22;20018;-93
2023/09/19 08:31:57;;;;;;;9.82;2.30;;;17.60;99.90;;;;;;6248503;22;20007;-93
2023/09/19 08:34:26;;;;;;;8.88;2.58;;;17.60;99.90;;;;;;6275516;22;20019;-96
2023/09/19 08:36:56;;;;;;;10.15;2.75;;;17.70;99.90;;;;;;6275950;22;20042;-93
2023/09/19 08:39:22;;;;;;;12.20;2.72;;;17.70;99.90;;;;;;6275403;22;20433;-93
2023/09/19 08:41:48;;;;;;;9.60;2.63;;;17.80;99.90;;;;;;6258496;22;20015;-95
2023/09/19 08:44:14;;;;;;;9.40;2.45;;;17.90;99.90;;;;;;6251231;22;20074;-93
2023/09/19 08:46:42;;;;;;;13.20;3.10;;;17.80;99.90;;;;;;6266400;22;20026;-95
2023/09/19 08:49:29;;;;;;;10.32;2.88;;;17.90;99.90;;;;;;6289147;22;20055;-95
2023/09/19 08:52:25;;;;;;;12.30;2.63;;;17.90;99.90;;;;;;6274193;22;20034;-92
2023/09/19 08:55:01;;;;;;;12.02;3.42;;;17.90;99.90;;;;;;6271370;22;20042;-96
2023/09/19 08:57:33;;;;;;;11.73;2.92;;;18.00;99.90;;;;;;6274966;22;20448;-96
2023/09/19 09:00:00;;;;;;;10.40;2.80;;;18.00;99.90;;;;;;6260742;22;20016;-91
2023/09/19 09:02:27;;;;;;;13.38;3.38;;;18.10;99.90;;;;;;6278644;22;20016;-96
2023/09/19 09:04:54;;;;;;;13.50;2.80;;;18.60;99.90;;;;;;6276167;22;20090;-96
2023/09/19 09:07:22;;;;;;;13.73;2.80;;;;;;;;;;6273432;22;20016;-96
2023/09/19 09:09:48;;;;;;;;;;;18.60;99.90;;;;;;6258484;22;20015;-95
2023/09/19 09:12:15;;;;;;;9.93;2.78;;;18.70;99.90;;;;;;6278718;22;19911;-96
2023/09/19 09:14:46;;;;;;;9.43;3.35;;;18.90;99.90;;;;;;6259222;22;20016;-96
2023/09/19 09:17:12;;;;;;;11.85;3.30;;;18.90;99.90;;;;;;6256310;22;20007;-96
2023/09/19 09:19:38;;;;;;;11.23;3.30;;;18.90;99.90;;;;;;6265452;22;20016;-96
2023/09/19 09:22:11;;;;;;;11.45;2.97;;;19.00;99.90;;;;;;6266020;22;20012;-96
2023/09/19 09:24:50;;;;;;;12.75;2.60;;;19.20;99.90;;;;;;6270595;22;20022;-96
2023/09/19 09:27:17;;;;;;;10.18;2.90;;;;;;;;;;6267376;22;20015;-96
2023/09/19 09:29:51;;;;;;;17.75;3.03;;;;;;;;;;6264594;22;20023;-96
2023/09/19 09:32:21;;;;;;;11.02;3.05;;;;;;;;;;6259531;22;20012;-96
2023/09/19 09:34:52;;;;;;;12.70;2.85;;;;;;;;;;6263217;22;20023;-96
2023/09/19 09:37:19;;;;;;;11.27;2.88;;;;;;;;;;6258363;22;20011;-96
2023/09/19 09:40:36;;;;;;;10.50;2.75;;;19.90;99.90;;;;;;6268823;22;20020;-96
2023/09/19 09:42:52;;;;;;;9.02;3.20;;;19.40;99.90;;;;;;6292639;22;20015;-96
2023/09/19 09:45:37;;;;;;;9.27;2.90;;;19.50;99.90;;;;;;6277063;22;20027;-96
2023/09/19 09:48:14;;;;;;;11.93;2.97;;;;;;;;;;6275841;22;20102;-96
2023/09/19 09:51:08;;;;;;;12.00;2.92;;;19.40;99.90;;;;;;6307184;22;20035;-96
2023/09/19 09:53:34;;;;;;;13.45;3.17;;;19.80;99.90;;;;;;6219517;22;20020;-96
2023/09/19 09:56:07;;;;;;;12.68;3.28;;;19.80;99.90;;;;;;6245607;22;21896;-94
2023/09/19 09:58:35;;;;;;;9.43;2.95;;;19.90;99.90;;;;;;6266932;22;20055;-96
2023/09/19 10:01:08;;;;;;;13.68;3.35;;;;;;;;;;6295809;22;20022;-96
2023/09/19 10:03:43;;;;;;;11.55;2.83;;;;;;;;;;6297592;22;20042;-96
2023/09/19 10:06:27;;;;;;;8.07;2.55;;;;;;;;;;6304033;22;20015;-96
2023/09/19 10:09:10;;;;;;;10.48;2.58;;;;;;;;;;6258174;22;20012;-95
2023/09/19 10:11:59;;;;;;;11.43;2.50;;;19.80;99.90;;;;;;6272075;22;20011;-96
2023/09/19 10:14:29;;;;;;;10.10;2.70;;;;;;;;;;6246182;22;20074;-96
2023/09/19 10:17:00;;;;;;;11.43;3.35;;;;;;;;;;6239652;22;20023;-96
2023/09/19 10:22:35;;;;;;;10.63;3.08;;;;;;;;;;6240922;22;20113;-96
2023/09/19 10:25:07;;;;;;;10.20;3.17;;;19.80;99.90;;;;;;6246276;22;20012;-96
2023/09/19 10:32:58;;;;;;;8.98;2.70;;;20.10;99.90;;;;;;6238104;22;20010;-96
2023/09/19 10:35:28;;;;;;;11.25;2.58;;;20.10;99.90;;;;;;6302134;22;20051;-96
2023/09/19 10:37:56;;;;;;;12.20;3.63;;;20.20;99.90;;;;;;6297456;22;20141;-96
2023/09/19 10:40:30;;;;;;;10.60;2.83;;;20.40;99.90;;;;;;6279793;22;20039;-96
2023/09/19 10:43:06;;;;;;;13.70;3.15;;;20.10;99.90;;;;;;6278351;22;20035;-96
2023/09/19 10:45:35;;;;;;;11.27;2.83;;;20.30;99.90;;;;;;6278357;22;20015;-94
2023/09/19 10:48:03;;;;;;;8.80;2.47;;;20.30;99.90;;;;;;6278173;22;20019;-96
2023/09/19 11:04:25;;;;;;;6.70;2.43;;;20.20;99.90;;;;;;6257913;22;20067;31
2023/09/19 11:07:10;;;;;;;9.68;2.70;;;19.80;99.90;;;;;;6208072;22;20021;-96
2023/09/19 13:27:09;;;;;;;7.65;2.20;;;;;;;;;;6258326;22;20024;-92
2023/09/19 13:29:35;;;;;;;7.95;2.00;;;19.50;99.90;;;;;;6219168;23;20055;-96
2023/09/19 13:32:02;;;;;;;3.83;1.50;;;19.50;99.90;;;;;;6219281;23;20012;-96
2023/09/19 13:34:29;;;;;;;5.88;1.88;;;19.40;99.90;;;;;;6223133;23;20386;-95
2023/09/19 13:36:55;;;;;;;6.28;1.95;;;19.40;99.90;;;;;;6220720;23;20022;-96
2023/09/19 13:39:23;;;;;;;6.05;1.95;;;19.30;99.90;;;;;;6221625;23;20047;-95
2023/09/19 13:41:49;;;;;;;6.88;1.98;;;19.20;99.90;;;;;;6233267;23;20099;-96
2023/09/19 13:44:17;;;;;;;6.40;1.98;;;19.10;99.90;;;;;;6242074;23;20479;-95
2023/09/19 13:46:45;;;;;;;;;;;19.10;99.90;;;;;;6228270;23;20018;-94
2023/09/19 13:49:11;;;;;;;6.30;2.10;;;19.00;99.90;;;;;;6224767;23;19911;-96
2023/09/19 13:51:37;;;;;;;7.43;2.20;;;19.00;99.90;;;;;;6225544;23;20130;-96
2023/09/19 13:54:03;;;;;;;6.63;1.73;;;19.00;99.90;;;;;;6221309;23;20504;-95
2023/09/19 13:56:30;;;;;;;6.72;1.98;;;19.00;99.90;;;;;;6220858;23;20008;-95
2023/09/19 13:58:55;;;;;;;5.75;1.67;;;19.00;99.90;;;;;;6222584;23;20026;-96
2023/09/19 14:01:21;;;;;;;8.95;1.80;;;19.00;99.90;;;;;;6218280;23;20102;-94
2023/09/19 14:03:49;;;;;;;6.88;1.55;;;19.10;99.90;;;;;;6219881;23;20018;-96
2023/09/19 14:06:15;;;;;;;9.55;1.95;;;19.10;99.90;;;;;;6220920;23;20031;-95
2023/09/19 14:08:41;;;;;;;8.00;1.50;;;19.10;99.90;;;;;;6224390;23;20012;-95
2023/09/19 14:11:08;;;;;;;7.60;1.77;;;19.10;99.90;;;;;;6221666;23;20016;-95
2023/09/19 14:13:34;;;;;;;4.63;1.47;;;19.20;99.90;;;;;;6221880;23;20290;-95
2023/09/19 14:16:04;;;;;;;5.90;1.48;;;19.20;99.90;;;;;;6228054;23;20275;-95
2023/09/19 14:18:31;;;;;;;4.13;1.52;;;19.20;99.90;;;;;;6232730;23;20008;-96
2023/09/19 14:20:56;;;;;;;6.40;2.10;;;19.20;99.90;;;;;;6233508;23;20026;-95
2023/09/19 14:23:23;;;;;;;7.55;1.50;;;19.20;99.90;;;;;;6240506;23;20041;-95
2023/09/19 14:25:53;;;;;;;6.00;1.80;;;19.20;99.90;;;;;;6241350;23;20008;-95
2023/09/19 14:28:19;;;;;;;6.15;1.73;;;19.10;99.90;;;;;;6242648;23;20067;-96
2023/09/19 14:30:46;;;;;;;5.32;1.42;;;19.10;99.90;;;;;;6225224;23;20027;-95
2023/09/19 14:33:11;;;;;;;5.47;1.70;;;19.00;99.90;;;;;;6219308;23;20480;-94
2023/09/19 14:35:38;;;;;;;7.47;1.65;;;19.00;99.90;;;;;;6219591;23;20019;-94
2023/09/19 14:38:04;;;;;;;4.85;1.45;;;19.00;99.90;;;;;;6220795;23;20023;-95
2023/09/19 14:40:30;;;;;;;4.05;1.27;;;19.10;99.90;;;;;;6220763;23;20004;-94
2023/09/19 14:42:56;;;;;;;4.53;1.30;;;19.20;99.90;;;;;;6225927;23;20500;-93
2023/09/19 14:45:22;;;;;;;7.78;1.65;;;19.20;99.90;;;;;;6230475;23;20077;-91
2023/09/19 14:47:48;;;;;;;4.53;1.35;;;19.30;99.90;;;;;;6248809;23;20019;-93
2023/09/19 14:50:15;;;;;;;4.47;1.40;;;19.30;99.90;;;;;;6221916;23;20018;-91
2023/09/19 14:52:41;;;;;;;5.33;1.63;;;19.30;99.90;;;;;;6223679;23;20016;-94
2023/09/19 14:55:11;;;;;;;6.20;1.67;;;19.30;99.90;;;;;;6251065;23;20346;-94
2023/09/19 14:57:40;;;;;;;7.00;1.40;;;19.30;99.90;;;;;;6221903;23;20008;-94
2023/09/19 15:00:11;;;;;;;4.68;1.60;;;19.30;99.90;;;;;;6219198;23;20106;-92
2023/09/19 15:02:38;;;;;;;4.97;1.63;;;19.30;99.90;;;;;;6218925;23;20019;-93
2023/09/19 15:05:06;;;;;;;9.17;1.67;;;19.20;99.90;;;;;;6246815;23;20403;-96
2023/09/19 15:07:32;;;;;;;6.40;2.05;;;19.20;99.90;;;;;;6220280;23;21029;-95
2023/09/19 15:09:58;;;;;;;5.72;1.55;;;19.20;99.90;;;;;;6220322;23;20091;-94
2023/09/19 15:12:23;;;;;;;4.82;1.25;;;19.20;99.90;;;;;;6224136;23;20027;-96
2023/09/19 15:14:49;;;;;;;7.50;1.60;;;19.10;99.90;;;;;;6221252;23;20012;-95
2023/09/19 15:17:15;;;;;;;3.90;1.13;;;19.20;99.90;;;;;;6219778;23;20499;-96
2023/09/19 15:19:41;;;;;;;3.60;1.30;;;19.20;99.90;;;;;;6219811;23;20442;-95
2023/09/19 15:22:06;;;;;;;2.08;1.10;;;19.20;99.90;;;;;;6219431;23;20082;-95
2023/09/19 15:24:32;;;;;;;4.60;1.50;;;19.20;99.90;;;;;;6218196;23;20047;-96
2023/09/19 15:26:58;;;;;;;4.60;1.20;;;19.20;99.90;;;;;;6217334;23;20023;-96
2023/09/19 15:29:24;;;;;;;5.38;1.40;;;19.10;99.90;;;;;;6224404;23;20031;-96
2023/09/19 15:31:49;;;;;;;4.88;1.35;;;19.10;99.90;;;;;;6238727;23;20024;-96
2023/09/19 15:34:15;;;;;;;4.63;1.40;;;19.00;99.90;;;;;;6234457;23;20016;-95
2023/09/19 15:36:42;;;;;;;4.15;1.20;;;19.00;99.90;;;;;;6220605;23;20008;-95
2023/09/19 15:39:10;;;;;;;4.65;1.27;;;18.90;99.90;;;;;;6230979;23;20095;-95
2023/09/19 15:41:41;;;;;;;5.18;1.50;;;18.90;99.90;;;;;;6218078;23;20024;-94
2023/09/19 15:44:18;;;;;;;4.00;1.50;;;18.90;99.90;;;;;;6219278;23;20047;-94
2023/09/19 15:46:44;;;;;;;3.28;1.08;;;18.90;99.90;;;;;;6230637;23;20016;-96
2023/09/19 15:49:10;;;;;;;4.68;1.45;;;18.80;99.90;;;;;;6226213;23;20019;-94
2023/09/19 15:51:36;;;;;;;5.25;1.30;;;18.80;99.90;;;;;;6241958;23;20067;-95
2023/09/19 15:54:09;;;;;;;5.30;1.25;;;18.70;99.90;;;;;;6245010;23;20050;-95
2023/09/19 15:56:35;;;;;;;4.15;1.33;;;18.70;99.90;;;;;;6243496;23;20043;-95
2023/09/19 15:59:01;;;;;;;3.25;1.38;;;18.70;99.90;;;;;;6230357;23;20012;-96
2023/09/19 16:01:27;;;;;;;3.60;1.10;;;18.70;99.90;;;;;;6236584;23;20020;-95
2023/09/19 16:03:56;;;;;;;5.13;1.23;;;18.60;99.90;;;;;;6239946;23;20012;-96
2023/09/19 16:06:25;;;;;;;3.63;1.35;;;18.60;99.90;;;;;;6242474;23;20059;-96
2023/09/19 16:08:55;;;;;;;6.70;2.10;;;18.60;99.90;;;;;;6243166;23;20024;-96
2023/09/19 16:11:21;;;;;;;4.88;1.70;;;18.60;99.90;;;;;;6240993;23;20017;-95
2023/09/19 16:13:49;;;;;;;8.88;2.00;;;18.60;99.90;;;;;;6238784;23;20013;-96
2023/09/19 16:16:19;;;;;;;5.13;1.45;;;18.60;99.90;;;;;;6236240;23;20038;-96
2023/09/19 16:18:57;;;;;;;6.50;1.33;;;18.60;99.90;;;;;;6239016;23;20023;-96
2023/09/19 16:21:27;;;;;;;4.18;1.35;;;18.50;99.90;;;;;;6241115;23;20030;-96
2023/09/19 16:23:53;;;;;;;4.47;1.27;;;18.60;99.90;;;;;;6242547;23;20004;-96
2023/09/19 16:26:20;;;;;;;5.57;1.33;;;18.50;99.90;;;;;;6242288;23;20016;-96
2023/09/19 16:28:47;;;;;;;5.03;1.50;;;18.50;99.90;;;;;;6238675;23;20064;-94
2023/09/19 16:31:13;;;;;;;8.50;1.65;;;18.50;99.90;;;;;;6224631;23;20027;-92
2023/09/19 16:33:43;;;;;;;6.53;1.52;;;18.50;99.90;;;;;;6227605;23;20042;-94
2023/09/19 16:36:10;;;;;;;4.68;1.25;;;18.50;99.90;;;;;;6230240;22;20059;-94
2023/09/19 16:59:23;;;;;;;3.30;1.60;;;18.20;99.90;;;;;;6273477;22;20016;-48
2023/09/19 17:01:48;;;;;;;2.70;1.13;;;18.20;99.90;;;;;;6276754;22;20347;-45
2023/09/19 17:04:15;;;;;;;6.88;1.73;;;18.10;99.90;;;;;;6276356;22;20022;-44
2023/09/19 17:06:46;;;;;;;6.22;1.55;;;18.10;99.90;;;;;;6276911;22;20441;-44
2023/09/19 17:09:12;;;;;;;6.07;1.60;;;18.10;99.90;;;;;;6277232;22;20099;-45
2023/09/19 17:11:38;;;;;;;4.88;1.50;;;18.10;99.90;;;;;;6278380;22;20012;-44
2023/09/19 17:14:04;;;;;;;5.82;1.48;;;18.00;99.90;;;;;;6277817;22;20018;-46
2023/09/19 17:16:30;;;;;;;4.45;1.50;;;18.10;99.90;;;;;;6276047;22;20047;-43
2023/09/19 17:18:57;;;;;;;4.93;1.33;;;18.10;99.90;;;;;;6250340;22;20016;-44
2023/09/19 17:21:24;;;;;;;4.75;1.45;;;18.00;99.90;;;;;;6277991;22;20305;-46
2023/09/19 17:23:50;;;;;;;;;;;18.00;99.90;;;;;;6278554;22;20023;-44
2023/09/19 17:26:20;;;;;;;5.85;1.40;;;17.90;99.90;;;;;;6277902;22;19926;-43
2023/09/19 17:28:47;;;;;;;5.10;1.60;;;18.00;99.90;;;;;;6278175;22;20015;-45
2023/09/19 17:31:17;;;;;;;4.88;1.70;;;17.90;99.90;;;;;;6278595;22;20047;-44
2023/09/19 17:33:44;;;;;;;4.13;1.60;;;17.90;99.90;;;;;;6277785;22;20062;-46
2023/09/19 17:36:13;;;;;;;5.22;1.73;;;17.80;99.90;;;;;;6278068;22;20012;-45
2023/09/19 17:38:40;;;;;;;5.45;1.65;;;17.90;99.90;;;;;;6277371;22;20023;-44
2023/09/19 17:41:07;;;;;;;4.25;1.30;;;17.80;99.90;;;;;;6277441;22;20443;-44
2023/09/19 17:43:38;;;;;;;3.60;1.50;;;17.80;99.90;;;;;;6250478;22;20070;-44
2023/09/19 17:46:15;;;;;;;7.55;2.17;;;17.80;99.90;;;;;;6276009;22;20016;-45
2023/09/19 17:48:45;;;;;;;5.18;1.80;;;17.80;99.90;;;;;;6277790;22;20043;-44
2023/09/19 17:51:12;;;;;;;4.38;1.67;;;17.70;99.90;;;;;;6277476;22;20022;-44
2023/09/19 17:53:40;;;;;;;4.88;1.50;;;17.70;99.90;;;;;;6277361;22;20066;-45
2023/09/19 17:56:10;;;;;;;4.68;1.50;;;17.70;99.90;;;;;;6277509;22;20016;-44
2023/09/19 17:58:40;;;;;;;4.65;1.42;;;17.70;99.90;;;;;;6249539;22;20504;-45
2023/09/19 18:01:09;;;;;;;5.25;1.40;;;17.70;99.90;;;;;;6275547;22;20024;-46
2023/09/19 18:03:35;;;;;;;6.32;1.85;;;17.70;99.90;;;;;;6277351;22;20441;-44
2023/09/19 18:06:01;;;;;;;5.43;1.42;;;17.70;99.90;;;;;;6277047;22;20022;-46
2023/09/19 18:08:27;;;;;;;3.10;1.35;;;17.70;99.90;;;;;;6277132;22;20045;-45
2023/09/19 18:10:54;;;;;;;7.45;2.55;;;17.70;99.90;;;;;;6277431;22;20439;-44
2023/09/19 18:13:20;;;;;;;4.88;2.00;;;17.50;99.90;;;;;;6277246;22;20022;-44
2023/09/19 18:15:46;;;;;;;3.83;1.83;;;17.40;99.90;;;;;;6276887;22;20016;-44
2023/09/19 18:18:12;;;;;;;6.63;2.17;;;17.40;99.90;;;;;;6277338;22;20012;-45
2023/09/19 18:20:41;;;;;;;4.32;1.67;;;17.30;99.90;;;;;;6276955;22;20031;-45
2023/09/19 18:23:07;;;;;;;8.05;1.70;;;17.20;99.90;;;;;;6277147;22;20011;-44
2023/09/19 18:25:34;;;;;;;5.38;1.70;;;17.20;99.90;;;;;;6277124;22;20012;-44
2023/09/19 18:27:59;;;;;;;4.03;1.85;;;17.10;99.90;;;;;;6274986;22;20077;-45
2023/09/19 18:30:26;;;;;;;4.07;1.65;;;17.10;99.90;;;;;;6277072;22;20012;-44
2023/09/19 18:32:52;;;;;;;8.15;1.63;;;17.00;99.90;;;;;;6276888;22;20373;-45
2023/09/19 18:35:18;;;;;;;3.97;1.83;;;16.90;99.90;;;;;;6277057;22;20020;-44
2023/09/19 18:37:47;;;;;;;3.78;1.50;;;17.00;99.90;;;;;;6276864;22;20019;-46
2023/09/19 18:40:13;;;;;;;5.05;1.40;;;17.00;99.90;;;;;;6276445;22;20091;-43
2023/09/19 18:42:40;;;;;;;4.97;1.60;;;16.90;99.90;;;;;;6275606;22;20459;-46
2023/09/19 18:45:12;;;;;;;4.70;1.83;;;16.80;99.90;;;;;;6276756;22;20015;-44
2023/09/19 18:47:38;;;;;;;3.58;1.55;;;16.90;99.90;;;;;;6275047;22;20012;-45
2023/09/19 18:50:04;;;;;;;3.60;1.67;;;16.80;99.90;;;;;;6276877;22;20501;-46
2023/09/19 18:52:31;;;;;;;5.22;2.00;;;16.80;99.90;;;;;;6276120;22;20016;-44
2023/09/19 18:54:56;;;;;;;7.70;1.90;;;16.70;99.90;;;;;;6275899;22;20049;-45
2023/09/19 18:57:22;;;;;;;7.22;2.13;;;16.80;99.90;;;;;;6276303;22;20012;-44
2023/09/19 18:59:48;;;;;;;7.45;2.10;;;16.70;99.90;;;;;;6276600;22;20339;-44
2023/09/19 19:02:14;;;;;;;4.25;1.90;;;16.70;99.90;;;;;;6276578;22;20007;-44
2023/09/19 19:04:39;;;;;;;6.28;1.98;;;16.90;99.90;;;;;;6276134;22;20343;-45
2023/09/19 19:07:11;;;;;;;5.32;1.90;;;16.60;99.90;;;;;;6275610;22;20019;-45
2023/09/19 19:09:40;;;;;;;6.43;2.03;;;16.70;99.90;;;;;;6276417;22;20055;-44
2023/09/19 19:12:06;;;;;;;4.68;2.10;;;16.70;99.90;;;;;;6276700;22;20018;-43
2023/09/19 19:14:32;;;;;;;7.13;2.20;;;16.60;99.90;;;;;;6276798;22;20202;-44
2023/09/19 19:16:58;;;;;;;5.35;2.10;;;16.70;99.90;;;;;;6276548;22;20110;-45
2023/09/19 19:19:25;;;;;;;7.75;2.35;;;16.60;99.90;;;;;;6276534;22;20095;-43
2023/09/19 19:21:50;;;;;;;6.45;1.80;;;16.50;99.90;;;;;;6276506;22;20106;-43
2023/09/19 19:24:18;;;;;;;5.75;2.05;;;16.60;99.90;;;;;;6276454;22;20051;-45
2023/09/19 19:26:44;;;;;;;5.40;2.03;;;16.50;99.90;;;;;;6276676;22;20092;-45
2023/09/19 19:29:15;;;;;;;8.68;2.15;;;16.40;99.90;;;;;;6276394;22;20012;-44
2023/09/19 19:31:41;;;;;;;6.50;2.33;;;16.40;99.90;;;;;;6275767;22;20540;-43
2023/09/19 19:34:07;;;;;;;7.07;1.98;;;16.30;99.90;;;;;;6276550;22;20020;-43
2023/09/19 19:36:33;;;;;;;7.70;2.60;;;16.30;99.90;;;;;;6276031;22;20031;-44
2023/09/19 19:38:59;;;;;;;6.70;2.00;;;16.30;99.90;;;;;;6274337;22;20339;-44
2023/09/19 19:41:25;;;;;;;5.10;1.80;;;16.30;99.90;;;;;;6274393;22;20015;-44
2023/09/19 19:43:50;;;;;;;7.55;2.10;;;16.30;99.90;;;;;;6276040;22;20015;-44
2023/09/19 19:46:16;;;;;;;7.30;2.70;;;16.30;99.90;;;;;;6276448;22;20019;-43
2023/09/19 19:48:42;;;;;;;8.13;2.42;;;16.30;99.90;;;;;;6274346;22;20019;-44
2023/09/19 19:51:09;;;;;;;5.05;2.42;;;16.30;99.90;;;;;;6275982;22;20428;-43
2023/09/19 19:53:38;;;;;;;5.20;2.33;;;16.30;99.90;;;;;;6275770;22;20458;-43
2023/09/19 19:56:05;;;;;;;6.00;2.20;;;16.30;99.90;;;;;;6276787;22;20308;-43
2023/09/19 19:58:37;;;;;;;5.55;2.90;;;16.30;99.90;;;;;;6274305;22;20024;-45
2023/09/19 20:01:06;;;;;;;6.13;2.22;;;16.30;99.90;;;;;;6276565;22;20007;-45
2023/09/19 20:03:35;;;;;;;6.93;2.20;;;16.30;99.90;;;;;;6276456;22;20069;-43
2023/09/19 20:06:02;;;;;;;5.25;2.30;;;16.30;99.90;;;;;;6276514;22;20026;-46
2023/09/19 20:08:28;;;;;;;5.78;2.22;;;16.30;99.90;;;;;;6276393;22;20347;-43
2023/09/19 20:11:03;;;;;;;5.38;2.00;;;16.30;99.90;;;;;;6272963;22;20018;-45
2023/09/19 20:13:29;;;;;;;5.38;2.08;;;16.30;99.90;;;;;;6276351;22;20038;-46
2023/09/19 20:15:56;;;;;;;7.70;2.10;;;16.40;99.90;;;;;;6276396;22;20027;-44
2023/09/19 20:18:22;;;;;;;6.32;2.22;;;16.40;99.90;;;;;;6275988;22;20023;-44
2023/09/19 20:20:48;;;;;;;4.43;1.77;;;16.40;99.90;;;;;;6275505;22;20025;-44
2023/09/19 20:23:16;;;;;;;3.42;1.70;;;16.40;99.90;;;;;;6276032;22;20317;-44
2023/09/19 20:25:44;;;;;;;;;;;16.40;99.90;;;;;;6277148;22;20022;-45
2023/09/19 20:28:14;;;;;;;7.40;2.00;;;16.40;99.90;;;;;;6276255;22;19922;-44
2023/09/19 20:30:43;;;;;;;6.18;2.35;;;16.70;99.90;;;;;;6277910;22;20014;-45
2023/09/19 20:33:12;;;;;;;7.97;2.28;;;16.50;99.90;;;;;;6278529;22;20065;-45
2023/09/19 20:35:41;;;;;;;7.28;2.28;;;16.40;99.90;;;;;;6278929;22;20016;-43
2023/09/19 20:38:11;;;;;;;4.70;2.00;;;16.50;99.90;;;;;;6278691;22;20272;-45
2023/09/19 20:40:40;;;;;;;6.05;2.20;;;;;;;;;;6278676;22;20020;-44
2023/09/19 20:43:05;;;;;;;5.60;2.42;;;16.40;99.90;;;;;;6276940;22;20043;-45
2023/09/19 20:45:33;;;;;;;7.28;2.10;;;16.40;99.90;;;;;;6276545;22;20415;-44
2023/09/19 20:47:58;;;;;;;;;;;16.50;99.90;;;;;;6277443;22;20019;-44
2023/09/19 20:50:26;;;;;;;8.02;2.58;;;16.50;99.90;;;;;;6276743;22;19915;-44
2023/09/19 20:52:52;;;;;;;5.07;2.10;;;16.50;99.90;;;;;;6277725;22;20024;-45
2023/09/19 20:55:18;;;;;;;9.77;2.38;;;16.70;99.90;;;;;;6275641;22;20030;-44
2023/09/19 20:57:45;;;;;;;6.18;2.20;;;16.70;99.90;;;;;;6276922;22;20509;-44
2023/09/19 21:00:11;;;;;;;7.57;2.22;;;16.70;99.90;;;;;;6276692;22;20450;-43
2023/09/19 21:02:38;;;;;;;6.03;2.28;;;16.50;99.90;;;;;;6277531;22;20020;-46
2023/09/19 21:05:04;;;;;;;7.22;2.45;;;16.50;99.90;;;;;;6276894;22;20351;-44
2023/09/19 21:07:31;;;;;;;3.67;1.90;;;16.60;99.90;;;;;;6275461;22;20016;-46
2023/09/19 21:09:58;;;;;;;7.03;2.25;;;;;;;;;;6277043;22;20390;-44
2023/09/19 21:12:24;;;;;;;6.90;2.35;;;16.60;99.90;;;;;;6277683;22;20015;-44
2023/09/19 21:14:52;;;;;;;6.93;2.50;;;16.60;99.90;;;;;;6277658;22;20083;-45
2023/09/19 21:17:18;;;;;;;8.48;2.47;;;16.60;99.90;;;;;;6277037;22;20093;-44
2023/09/19 21:19:44;;;;;;;6.18;2.15;;;16.60;99.90;;;;;;6277078;22;20025;-44
2023/09/19 21:22:10;;;;;;;6.00;2.83;;;17.00;99.90;;;;;;6274578;22;20012;-44
2023/09/19 21:24:37;;;;;;;5.03;2.20;;;;;;;;;;6276152;22;20020;-45
2023/09/19 21:27:06;;;;;;;6.22;2.15;;;16.70;99.90;;;;;;6273676;22;20556;-44
2023/09/19 21:29:33;;;;;;;5.68;2.20;;;16.80;99.90;;;;;;6277373;22;20020;-44
2023/09/19 21:31:58;;;;;;;6.60;2.25;;;16.70;99.90;;;;;;6277102;22;20016;-45
2023/09/19 21:34:24;;;;;;;8.60;2.55;;;16.70;99.90;;;;;;6277315;22;20065;-45
2023/09/19 21:36:51;;;;;;;6.78;2.60;;;16.80;99.90;;;;;;6276875;22;20008;-44
2023/09/19 21:39:17;;;;;;;5.10;2.23;;;16.80;99.90;;;;;;6275459;22;20020;-45
2023/09/19 21:41:43;;;;;;;5.30;2.70;;;;;;;;;;6277064;22;20027;-45
2023/09/19 21:44:09;;;;;;;4.57;2.30;;;16.90;99.90;;;;;;6275272;22;20020;-44
2023/09/19 21:46:36;;;;;;;8.43;2.50;;;16.80;99.90;;;;;;6277074;22;20019;-46
2023/09/19 21:49:02;;;;;;;6.47;2.63;;;16.80;99.90;;;;;;6277344;22;20081;-43
2023/09/19 21:51:28;;;;;;;5.32;2.17;;;16.80;99.90;;;;;;6249188;22;20015;-45
2023/09/19 21:53:57;;;;;;;8.10;2.45;;;16.90;99.90;;;;;;6276982;22;20309;-43
2023/09/19 21:56:23;;;;;;;7.53;2.47;;;16.70;99.90;;;;;;6274738;22;20470;-44
2023/09/19 21:58:49;;;;;;;5.57;2.08;;;16.80;99.90;;;;;;6276252;22;20023;-45
2023/09/19 22:01:22;;;;;;;5.22;2.45;;;16.90;99.90;;;;;;6276518;22;20065;-48
2023/09/19 22:03:48;;;;;;;4.38;1.95;;;16.80;99.90;;;;;;6277032;22;20018;-45
2023/09/19 22:06:16;;;;;;;7.82;2.25;;;16.90;99.90;;;;;;6274949;22;20016;-45
2023/09/19 22:08:43;;;;;;;7.25;2.50;;;16.90;99.90;;;;;;6275907;22;20394;-44
2023/09/19 22:11:10;;;;;;;4.97;2.30;;;16.90;99.90;;;;;;6276245;22;20008;-46
2023/09/19 22:13:39;;;;;;;5.55;2.33;;;16.90;99.90;;;;;;6275501;22;20039;-46
2023/09/19 22:16:05;;;;;;;6.13;2.25;;;16.90;99.90;;;;;;6276533;22;20026;-47
2023/09/19 22:18:31;;;;;;;8.25;2.50;;;17.00;99.90;;;;;;6275947;22;20012;-45
2023/09/19 22:21:06;;;;;;;5.55;2.50;;;16.80;99.90;;;;;;6275523;22;20041;-45
2023/09/19 22:23:35;;;;;;;5.32;2.13;;;17.00;99.90;;;;;;6272464;22;20022;-45
2023/09/19 22:26:05;;;;;;;6.70;2.22;;;17.10;99.90;;;;;;6273371;22;20016;-45
2023/09/19 22:28:35;;;;;;;9.25;3.08;;;16.90;99.90;;;;;;6274848;22;20018;-44
2023/09/19 22:31:08;;;;;;;5.70;2.40;;;16.90;99.90;;;;;;6272033;22;20016;-44
2023/09/19 22:33:37;;;;;;;5.50;2.47;;;16.90;99.90;;;;;;6271508;22;20034;-43
2023/09/19 22:36:05;;;;;;;11.85;3.35;;;16.90;99.90;;;;;;6271339;22;20015;-44
2023/09/19 22:38:34;;;;;;;7.72;2.65;;;16.80;99.90;;;;;;6270921;22;20475;-43
2023/09/19 22:41:05;;;;;;;5.32;2.30;;;16.70;99.90;;;;;;6271923;22;20339;-44
2023/09/19 22:43:35;;;;;;;5.57;2.53;;;16.70;99.90;;;;;;6271093;22;20142;-43
2023/09/19 22:46:06;;;;;;;8.95;2.92;;;16.70;99.90;;;;;;6270537;22;20485;-44
2023/09/19 22:48:38;;;;;;;6.07;2.55;;;16.80;99.90;;;;;;6268742;22;20026;-45